sensor_id;sensor_type;location;lat;lon;timestamp;P1;durP1;ratioP1;P2;durP2;ratioP2
15454;SDS011;21057;51.024;7.540;2023-08-06T00:00:55;24.87;;;23.30;;
15454;SDS011;21057;51.024;7.540;2023-08-06T00:03:22;24.37;;;22.87;;
15454;SDS011;21057;51.024;7.540;2023-08-06T00:05:49;23.93;;;22.53;;
15454;SDS011;21057;51.024;7.540;2023-08-06T00:08:16;24.40;;;22.80;;
15454;SDS011;21057;51.024;7.540;2023-08-06T00:10:42;24.73;;;23.13;;
15454;SDS011;21057;51.024;7.540;2023-08-06T00:13:09;25.03;;;23.47;;
15454;SDS011;21057;51.024;7.540;2023-08-06T00:15:36;24.50;;;22.88;;
15454;SDS011;21057;51.024;7.540;2023-08-06T00:18:04;25.07;;;23.27;;
15454;SDS011;21057;51.024;7.540;2023-08-06T00:20:31;25.67;;;23.93;;
15454;SDS011;21057;51.024;7.540;2023-08-06T00:22:58;24.57;;;23.07;;
15454;SDS011;21057;51.024;7.540;2023-08-06T00:25:24;24.73;;;23.13;;
15454;SDS011;21057;51.024;7.540;2023-08-06T00:27:51;24.42;;;22.88;;
15454;SDS011;21057;51.024;7.540;2023-08-06T00:30:18;24.70;;;23.03;;
15454;SDS011;21057;51.024;7.540;2023-08-06T00:32:45;25.20;;;23.60;;
15454;SDS011;21057;51.024;7.540;2023-08-06T00:35:13;24.90;;;23.37;;
15454;SDS011;21057;51.024;7.540;2023-08-06T00:37:41;24.00;;;22.47;;
15454;SDS011;21057;51.024;7.540;2023-08-06T00:40:08;24.03;;;22.53;;
15454;SDS011;21057;51.024;7.540;2023-08-06T00:42:35;24.07;;;22.57;;
15454;SDS011;21057;51.024;7.540;2023-08-06T00:45:02;24.03;;;22.43;;
15454;SDS011;21057;51.024;7.540;2023-08-06T00:47:29;24.53;;;22.97;;
15454;SDS011;21057;51.024;7.540;2023-08-06T00:49:56;23.83;;;22.37;;
15454;SDS011;21057;51.024;7.540;2023-08-06T00:52:24;25.20;;;23.40;;
15454;SDS011;21057;51.024;7.540;2023-08-06T00:54:51;24.63;;;23.07;;
15454;SDS011;21057;51.024;7.540;2023-08-06T00:57:18;24.57;;;23.07;;
15454;SDS011;21057;51.024;7.540;2023-08-06T00:59:47;24.57;;;22.97;;
15454;SDS011;21057;51.024;7.540;2023-08-06T01:02:15;24.03;;;22.53;;
15454;SDS011;21057;51.024;7.540;2023-08-06T01:04:42;24.20;;;22.80;;
15454;SDS011;21057;51.024;7.540;2023-08-06T01:07:11;23.53;;;21.93;;
15454;SDS011;21057;51.024;7.540;2023-08-06T01:09:49;24.53;;;22.83;;
15454;SDS011;21057;51.024;7.540;2023-08-06T01:12:25;25.13;;;23.50;;
15454;SDS011;21057;51.024;7.540;2023-08-06T01:15:00;24.03;;;22.53;;
15454;SDS011;21057;51.024;7.540;2023-08-06T01:17:33;25.00;;;23.30;;
15454;SDS011;21057;51.024;7.540;2023-08-06T01:20:01;24.13;;;22.63;;
15454;SDS011;21057;51.024;7.540;2023-08-06T01:22:30;24.60;;;23.10;;
15454;SDS011;21057;51.024;7.540;2023-08-06T01:24:57;23.92;;;22.23;;
15454;SDS011;21057;51.024;7.540;2023-08-06T01:27:26;24.50;;;23.00;;
15454;SDS011;21057;51.024;7.540;2023-08-06T01:29:57;24.90;;;23.40;;
15454;SDS011;21057;51.024;7.540;2023-08-06T01:32:30;24.80;;;23.10;;
15454;SDS011;21057;51.024;7.540;2023-08-06T01:35:00;25.10;;;23.43;;
15454;SDS011;21057;51.024;7.540;2023-08-06T01:37:29;24.73;;;23.03;;
15454;SDS011;21057;51.024;7.540;2023-08-06T01:39:57;24.90;;;23.20;;
15454;SDS011;21057;51.024;7.540;2023-08-06T01:42:24;24.17;;;22.67;;
15454;SDS011;21057;51.024;7.540;2023-08-06T01:44:51;24.73;;;23.13;;
15454;SDS011;21057;51.024;7.540;2023-08-06T01:47:17;25.43;;;23.90;;
15454;SDS011;21057;51.024;7.540;2023-08-06T01:49:44;25.00;;;23.40;;
15454;SDS011;21057;51.024;7.540;2023-08-06T01:52:11;25.63;;;23.90;;
15454;SDS011;21057;51.024;7.540;2023-08-06T01:54:39;25.43;;;23.70;;
15454;SDS011;21057;51.024;7.540;2023-08-06T01:57:06;24.90;;;23.30;;
15454;SDS011;21057;51.024;7.540;2023-08-06T01:59:33;24.33;;;22.73;;
15454;SDS011;21057;51.024;7.540;2023-08-06T02:01:59;26.40;;;24.67;;
15454;SDS011;21057;51.024;7.540;2023-08-06T02:04:26;25.87;;;24.07;;
15454;SDS011;21057;51.024;7.540;2023-08-06T02:06:53;24.23;;;22.73;;
15454;SDS011;21057;51.024;7.540;2023-08-06T02:09:20;24.67;;;23.07;;
15454;SDS011;21057;51.024;7.540;2023-08-06T02:11:48;25.63;;;23.93;;
15454;SDS011;21057;51.024;7.540;2023-08-06T02:14:15;24.07;;;22.67;;
15454;SDS011;21057;51.024;7.540;2023-08-06T02:16:42;23.77;;;22.37;;
15454;SDS011;21057;51.024;7.540;2023-08-06T02:19:08;24.93;;;23.33;;
15454;SDS011;21057;51.024;7.540;2023-08-06T02:21:35;24.03;;;22.53;;
15454;SDS011;21057;51.024;7.540;2023-08-06T02:24:02;24.53;;;23.03;;
15454;SDS011;21057;51.024;7.540;2023-08-06T02:26:29;25.00;;;23.20;;
15454;SDS011;21057;51.024;7.540;2023-08-06T02:28:58;24.40;;;22.90;;
15454;SDS011;21057;51.024;7.540;2023-08-06T02:31:24;24.47;;;22.90;;
15454;SDS011;21057;51.024;7.540;2023-08-06T02:33:51;24.27;;;22.67;;
15454;SDS011;21057;51.024;7.540;2023-08-06T02:36:18;23.63;;;22.20;;
15454;SDS011;21057;51.024;7.540;2023-08-06T02:38:45;23.70;;;21.60;;
15454;SDS011;21057;51.024;7.540;2023-08-06T02:41:13;22.97;;;21.57;;
15454;SDS011;21057;51.024;7.540;2023-08-06T02:43:39;23.90;;;22.40;;
15454;SDS011;21057;51.024;7.540;2023-08-06T02:46:08;24.47;;;22.87;;
15454;SDS011;21057;51.024;7.540;2023-08-06T02:48:34;24.80;;;23.30;;
15454;SDS011;21057;51.024;7.540;2023-08-06T02:51:01;24.83;;;23.20;;
15454;SDS011;21057;51.024;7.540;2023-08-06T02:53:28;24.40;;;22.90;;
15454;SDS011;21057;51.024;7.540;2023-08-06T02:55:56;24.83;;;23.27;;
15454;SDS011;21057;51.024;7.540;2023-08-06T02:58:24;24.43;;;22.97;;
15454;SDS011;21057;51.024;7.540;2023-08-06T03:01:00;24.47;;;23.00;;
15454;SDS011;21057;51.024;7.540;2023-08-06T03:03:29;24.83;;;23.30;;
15454;SDS011;21057;51.024;7.540;2023-08-06T03:05:56;24.60;;;23.10;;
15454;SDS011;21057;51.024;7.540;2023-08-06T03:08:23;24.63;;;23.23;;
15454;SDS011;21057;51.024;7.540;2023-08-06T03:10:51;24.23;;;22.63;;
15454;SDS011;21057;51.024;7.540;2023-08-06T03:13:18;24.17;;;22.67;;
15454;SDS011;21057;51.024;7.540;2023-08-06T03:15:51;25.73;;;24.03;;
15454;SDS011;21057;51.024;7.540;2023-08-06T03:18:19;24.33;;;22.93;;
15454;SDS011;21057;51.024;7.540;2023-08-06T03:20:47;24.03;;;22.53;;
15454;SDS011;21057;51.024;7.540;2023-08-06T03:23:14;25.00;;;23.13;;
15454;SDS011;21057;51.024;7.540;2023-08-06T03:25:41;24.30;;;22.80;;
15454;SDS011;21057;51.024;7.540;2023-08-06T03:28:08;24.60;;;22.90;;
15454;SDS011;21057;51.024;7.540;2023-08-06T03:30:34;24.60;;;22.80;;
15454;SDS011;21057;51.024;7.540;2023-08-06T03:33:01;23.50;;;22.00;;
15454;SDS011;21057;51.024;7.540;2023-08-06T03:35:28;23.63;;;22.23;;
15454;SDS011;21057;51.024;7.540;2023-08-06T03:37:57;24.73;;;23.23;;
15454;SDS011;21057;51.024;7.540;2023-08-06T03:40:23;24.13;;;22.63;;
15454;SDS011;21057;51.024;7.540;2023-08-06T03:42:50;24.33;;;22.83;;
15454;SDS011;21057;51.024;7.540;2023-08-06T03:45:17;23.97;;;22.50;;
15454;SDS011;21057;51.024;7.540;2023-08-06T03:47:44;25.63;;;23.53;;
15454;SDS011;21057;51.024;7.540;2023-08-06T03:50:11;23.70;;;22.20;;
15454;SDS011;21057;51.024;7.540;2023-08-06T03:52:37;24.33;;;22.83;;
15454;SDS011;21057;51.024;7.540;2023-08-06T03:55:06;23.60;;;22.10;;
15454;SDS011;21057;51.024;7.540;2023-08-06T03:57:33;24.93;;;23.43;;
15454;SDS011;21057;51.024;7.540;2023-08-06T03:59:59;24.07;;;22.57;;
15454;SDS011;21057;51.024;7.540;2023-08-06T04:02:26;24.93;;;22.80;;
15454;SDS011;21057;51.024;7.540;2023-08-06T04:04:53;25.00;;;23.50;;
15454;SDS011;21057;51.024;7.540;2023-08-06T04:07:20;25.07;;;23.07;;
15454;SDS011;21057;51.024;7.540;2023-08-06T04:09:53;23.73;;;22.33;;
15454;SDS011;21057;51.024;7.540;2023-08-06T04:12:22;24.13;;;22.63;;
15454;SDS011;21057;51.024;7.540;2023-08-06T04:14:50;24.63;;;22.93;;
15454;SDS011;21057;51.024;7.540;2023-08-06T04:17:17;24.20;;;22.67;;
15454;SDS011;21057;51.024;7.540;2023-08-06T04:19:45;24.60;;;22.93;;
15454;SDS011;21057;51.024;7.540;2023-08-06T04:22:13;24.47;;;23.07;;
15454;SDS011;21057;51.024;7.540;2023-08-06T04:24:41;23.70;;;22.20;;
15454;SDS011;21057;51.024;7.540;2023-08-06T04:27:08;23.70;;;22.30;;
15454;SDS011;21057;51.024;7.540;2023-08-06T04:29:37;23.83;;;22.33;;
15454;SDS011;21057;51.024;7.540;2023-08-06T04:32:05;24.00;;;22.40;;
15454;SDS011;21057;51.024;7.540;2023-08-06T04:34:32;23.57;;;21.97;;
15454;SDS011;21057;51.024;7.540;2023-08-06T04:37:00;24.13;;;22.63;;
15454;SDS011;21057;51.024;7.540;2023-08-06T04:39:27;24.37;;;22.40;;
15454;SDS011;21057;51.024;7.540;2023-08-06T04:41:54;23.40;;;21.80;;
15454;SDS011;21057;51.024;7.540;2023-08-06T04:44:21;23.10;;;21.70;;
15454;SDS011;21057;51.024;7.540;2023-08-06T04:46:49;23.30;;;21.90;;
15454;SDS011;21057;51.024;7.540;2023-08-06T04:49:17;22.90;;;21.23;;
15454;SDS011;21057;51.024;7.540;2023-08-06T04:51:44;23.07;;;21.57;;
15454;SDS011;21057;51.024;7.540;2023-08-06T04:54:10;23.67;;;22.10;;
15454;SDS011;21057;51.024;7.540;2023-08-06T04:56:37;24.03;;;22.23;;
15454;SDS011;21057;51.024;7.540;2023-08-06T04:59:04;22.85;;;21.50;;
15454;SDS011;21057;51.024;7.540;2023-08-06T05:01:31;22.97;;;21.57;;
15454;SDS011;21057;51.024;7.540;2023-08-06T05:03:59;23.03;;;21.63;;
15454;SDS011;21057;51.024;7.540;2023-08-06T05:06:26;24.70;;;22.73;;
15454;SDS011;21057;51.024;7.540;2023-08-06T05:08:53;24.07;;;22.50;;
15454;SDS011;21057;51.024;7.540;2023-08-06T05:11:20;24.57;;;22.83;;
15454;SDS011;21057;51.024;7.540;2023-08-06T05:13:46;23.43;;;21.73;;
15454;SDS011;21057;51.024;7.540;2023-08-06T05:16:13;22.70;;;21.30;;
15454;SDS011;21057;51.024;7.540;2023-08-06T05:18:40;24.53;;;22.37;;
15454;SDS011;21057;51.024;7.540;2023-08-06T05:21:09;23.30;;;21.53;;
15454;SDS011;21057;51.024;7.540;2023-08-06T05:23:35;22.58;;;21.20;;
15454;SDS011;21057;51.024;7.540;2023-08-06T05:26:02;23.93;;;22.43;;
15454;SDS011;21057;51.024;7.540;2023-08-06T05:28:29;22.77;;;21.27;;
15454;SDS011;21057;51.024;7.540;2023-08-06T05:30:56;23.17;;;21.77;;
15454;SDS011;21057;51.024;7.540;2023-08-06T05:33:22;23.80;;;22.20;;
15454;SDS011;21057;51.024;7.540;2023-08-06T05:35:49;22.73;;;21.33;;
15454;SDS011;21057;51.024;7.540;2023-08-06T05:38:17;23.17;;;21.77;;
15454;SDS011;21057;51.024;7.540;2023-08-06T05:40:44;23.13;;;21.63;;
15454;SDS011;21057;51.024;7.540;2023-08-06T05:43:11;23.50;;;22.00;;
15454;SDS011;21057;51.024;7.540;2023-08-06T05:45:38;23.73;;;22.13;;
15454;SDS011;21057;51.024;7.540;2023-08-06T05:48:05;22.35;;;20.90;;
15454;SDS011;21057;51.024;7.540;2023-08-06T05:50:31;22.60;;;21.17;;
15454;SDS011;21057;51.024;7.540;2023-08-06T05:52:58;21.40;;;20.10;;
15454;SDS011;21057;51.024;7.540;2023-08-06T05:55:26;21.17;;;19.87;;
15454;SDS011;21057;51.024;7.540;2023-08-06T05:57:53;22.67;;;21.17;;
15454;SDS011;21057;51.024;7.540;2023-08-06T06:00:20;22.03;;;20.63;;
15454;SDS011;21057;51.024;7.540;2023-08-06T06:02:47;21.97;;;20.57;;
15454;SDS011;21057;51.024;7.540;2023-08-06T06:05:14;21.57;;;20.27;;
15454;SDS011;21057;51.024;7.540;2023-08-06T06:07:42;21.80;;;20.20;;
15454;SDS011;21057;51.024;7.540;2023-08-06T06:10:09;21.40;;;20.10;;
15454;SDS011;21057;51.024;7.540;2023-08-06T06:12:39;22.47;;;20.70;;
15454;SDS011;21057;51.024;7.540;2023-08-06T06:15:06;21.03;;;19.73;;
15454;SDS011;21057;51.024;7.540;2023-08-06T06:17:34;21.77;;;20.37;;
15454;SDS011;21057;51.024;7.540;2023-08-06T06:20:00;22.83;;;21.23;;
15454;SDS011;21057;51.024;7.540;2023-08-06T06:22:29;22.55;;;21.15;;
15454;SDS011;21057;51.024;7.540;2023-08-06T06:24:56;22.15;;;20.77;;
15454;SDS011;21057;51.024;7.540;2023-08-06T06:27:22;21.53;;;20.13;;
15454;SDS011;21057;51.024;7.540;2023-08-06T06:29:51;21.88;;;20.48;;
15454;SDS011;21057;51.024;7.540;2023-08-06T06:32:19;21.30;;;20.00;;
15454;SDS011;21057;51.024;7.540;2023-08-06T06:34:46;21.23;;;19.93;;
15454;SDS011;21057;51.024;7.540;2023-08-06T06:37:13;22.03;;;20.63;;
15454;SDS011;21057;51.024;7.540;2023-08-06T06:39:40;22.23;;;20.87;;
15454;SDS011;21057;51.024;7.540;2023-08-06T06:42:07;21.57;;;20.23;;
15454;SDS011;21057;51.024;7.540;2023-08-06T06:44:33;21.83;;;20.43;;
15454;SDS011;21057;51.024;7.540;2023-08-06T06:47:02;21.63;;;20.33;;
15454;SDS011;21057;51.024;7.540;2023-08-06T06:49:29;22.00;;;20.50;;
15454;SDS011;21057;51.024;7.540;2023-08-06T06:51:55;22.30;;;20.90;;
15454;SDS011;21057;51.024;7.540;2023-08-06T06:54:22;21.93;;;20.33;;
15454;SDS011;21057;51.024;7.540;2023-08-06T06:56:49;22.23;;;20.83;;
15454;SDS011;21057;51.024;7.540;2023-08-06T06:59:16;21.38;;;19.80;;
15454;SDS011;21057;51.024;7.540;2023-08-06T07:01:43;21.23;;;19.93;;
15454;SDS011;21057;51.024;7.540;2023-08-06T07:04:11;20.87;;;19.60;;
15454;SDS011;21057;51.024;7.540;2023-08-06T07:06:38;20.70;;;19.50;;
15454;SDS011;21057;51.024;7.540;2023-08-06T07:09:04;21.10;;;19.73;;
15454;SDS011;21057;51.024;7.540;2023-08-06T07:11:32;20.27;;;19.08;;
15454;SDS011;21057;51.024;7.540;2023-08-06T07:13:58;21.10;;;19.80;;
15454;SDS011;21057;51.024;7.540;2023-08-06T07:16:25;21.05;;;19.75;;
15454;SDS011;21057;51.024;7.540;2023-08-06T07:18:53;20.92;;;19.73;;
15454;SDS011;21057;51.024;7.540;2023-08-06T07:21:21;21.35;;;20.05;;
15454;SDS011;21057;51.024;7.540;2023-08-06T07:23:48;21.40;;;20.10;;
15454;SDS011;21057;51.024;7.540;2023-08-06T07:26:15;21.23;;;19.92;;
15454;SDS011;21057;51.024;7.540;2023-08-06T07:28:42;22.10;;;20.67;;
15454;SDS011;21057;51.024;7.540;2023-08-06T07:31:09;21.75;;;20.45;;
15454;SDS011;21057;51.024;7.540;2023-08-06T07:33:36;22.65;;;20.52;;
15454;SDS011;21057;51.024;7.540;2023-08-06T07:36:10;21.48;;;20.17;;
15454;SDS011;21057;51.024;7.540;2023-08-06T07:38:39;21.80;;;20.50;;
15454;SDS011;21057;51.024;7.540;2023-08-06T07:41:06;21.95;;;20.65;;
15454;SDS011;21057;51.024;7.540;2023-08-06T07:43:33;21.58;;;20.27;;
15454;SDS011;21057;51.024;7.540;2023-08-06T07:46:01;21.85;;;20.55;;
15454;SDS011;21057;51.024;7.540;2023-08-06T07:48:29;22.35;;;20.95;;
15454;SDS011;21057;51.024;7.540;2023-08-06T07:50:56;21.40;;;20.20;;
15454;SDS011;21057;51.024;7.540;2023-08-06T07:53:23;22.08;;;20.77;;
15454;SDS011;21057;51.024;7.540;2023-08-06T07:55:53;21.85;;;20.58;;
15454;SDS011;21057;51.024;7.540;2023-08-06T07:58:20;21.70;;;20.30;;
15454;SDS011;21057;51.024;7.540;2023-08-06T08:00:47;21.05;;;19.85;;
15454;SDS011;21057;51.024;7.540;2023-08-06T08:03:14;22.20;;;20.80;;
15454;SDS011;21057;51.024;7.540;2023-08-06T08:05:42;21.65;;;20.45;;
15454;SDS011;21057;51.024;7.540;2023-08-06T08:08:09;21.08;;;19.88;;
15454;SDS011;21057;51.024;7.540;2023-08-06T08:10:36;21.70;;;20.40;;
15454;SDS011;21057;51.024;7.540;2023-08-06T08:13:05;22.02;;;20.73;;
15454;SDS011;21057;51.024;7.540;2023-08-06T08:15:32;20.85;;;19.65;;
15454;SDS011;21057;51.024;7.540;2023-08-06T08:18:00;21.73;;;20.10;;
15454;SDS011;21057;51.024;7.540;2023-08-06T08:20:27;20.98;;;19.75;;
15454;SDS011;21057;51.024;7.540;2023-08-06T08:22:58;21.02;;;19.75;;
15454;SDS011;21057;51.024;7.540;2023-08-06T08:25:26;20.97;;;19.70;;
15454;SDS011;21057;51.024;7.540;2023-08-06T08:27:53;21.02;;;19.83;;
15454;SDS011;21057;51.024;7.540;2023-08-06T08:30:21;20.40;;;19.20;;
15454;SDS011;21057;51.024;7.540;2023-08-06T08:32:50;20.90;;;19.70;;
15454;SDS011;21057;51.024;7.540;2023-08-06T08:35:16;21.40;;;20.20;;
15454;SDS011;21057;51.024;7.540;2023-08-06T08:37:43;21.70;;;20.50;;
15454;SDS011;21057;51.024;7.540;2023-08-06T08:40:11;21.23;;;20.00;;
15454;SDS011;21057;51.024;7.540;2023-08-06T08:42:39;21.15;;;19.83;;
15454;SDS011;21057;51.024;7.540;2023-08-06T08:45:08;22.13;;;20.73;;
15454;SDS011;21057;51.024;7.540;2023-08-06T08:47:40;21.80;;;20.50;;
15454;SDS011;21057;51.024;7.540;2023-08-06T08:50:09;22.10;;;20.70;;
15454;SDS011;21057;51.024;7.540;2023-08-06T08:52:38;21.70;;;20.40;;
15454;SDS011;21057;51.024;7.540;2023-08-06T08:55:05;22.05;;;20.65;;
15454;SDS011;21057;51.024;7.540;2023-08-06T08:57:34;21.85;;;20.55;;
15454;SDS011;21057;51.024;7.540;2023-08-06T09:00:01;21.73;;;20.42;;
15454;SDS011;21057;51.024;7.540;2023-08-06T09:02:28;22.00;;;20.60;;
15454;SDS011;21057;51.024;7.540;2023-08-06T09:04:59;22.95;;;21.45;;
15454;SDS011;21057;51.024;7.540;2023-08-06T09:07:29;23.25;;;21.85;;
15454;SDS011;21057;51.024;7.540;2023-08-06T09:10:02;23.58;;;22.17;;
15454;SDS011;21057;51.024;7.540;2023-08-06T09:12:30;22.92;;;21.42;;
15454;SDS011;21057;51.024;7.540;2023-08-06T09:14:56;22.30;;;20.90;;
15454;SDS011;21057;51.024;7.540;2023-08-06T09:17:23;22.30;;;20.90;;
15454;SDS011;21057;51.024;7.540;2023-08-06T09:19:50;22.25;;;20.85;;
15454;SDS011;21057;51.024;7.540;2023-08-06T09:22:18;22.77;;;21.17;;
15454;SDS011;21057;51.024;7.540;2023-08-06T09:24:45;22.52;;;21.13;;
15454;SDS011;21057;51.024;7.540;2023-08-06T09:27:13;22.45;;;20.90;;
15454;SDS011;21057;51.024;7.540;2023-08-06T09:29:41;24.05;;;22.52;;
15454;SDS011;21057;51.024;7.540;2023-08-06T09:32:10;23.63;;;22.13;;
15454;SDS011;21057;51.024;7.540;2023-08-06T09:34:38;24.25;;;22.75;;
15454;SDS011;21057;51.024;7.540;2023-08-06T09:37:05;23.42;;;21.95;;
15454;SDS011;21057;51.024;7.540;2023-08-06T09:39:36;23.83;;;22.40;;
15454;SDS011;21057;51.024;7.540;2023-08-06T09:42:06;23.15;;;21.70;;
15454;SDS011;21057;51.024;7.540;2023-08-06T09:44:33;22.00;;;20.70;;
15454;SDS011;21057;51.024;7.540;2023-08-06T09:47:00;23.17;;;21.70;;
15454;SDS011;21057;51.024;7.540;2023-08-06T09:49:28;23.38;;;21.88;;
15454;SDS011;21057;51.024;7.540;2023-08-06T09:52:08;21.90;;;20.60;;
15454;SDS011;21057;51.024;7.540;2023-08-06T09:54:38;21.45;;;20.15;;
15454;SDS011;21057;51.024;7.540;2023-08-06T09:57:05;22.30;;;20.88;;
15454;SDS011;21057;51.024;7.540;2023-08-06T09:59:32;22.92;;;21.45;;
15454;SDS011;21057;51.024;7.540;2023-08-06T10:02:00;22.65;;;21.25;;
15454;SDS011;21057;51.024;7.540;2023-08-06T10:04:28;23.92;;;22.42;;
15454;SDS011;21057;51.024;7.540;2023-08-06T10:06:55;23.20;;;21.70;;
15454;SDS011;21057;51.024;7.540;2023-08-06T10:09:24;23.95;;;22.45;;
15454;SDS011;21057;51.024;7.540;2023-08-06T10:11:52;23.20;;;21.80;;
15454;SDS011;21057;51.024;7.540;2023-08-06T10:14:21;23.75;;;22.05;;
15454;SDS011;21057;51.024;7.540;2023-08-06T10:16:50;22.55;;;21.15;;
15454;SDS011;21057;51.024;7.540;2023-08-06T10:19:18;23.58;;;22.17;;
15454;SDS011;21057;51.024;7.540;2023-08-06T10:24:50;21.38;;;20.08;;
15454;SDS011;21057;51.024;7.540;2023-08-06T10:27:21;21.85;;;20.55;;
15454;SDS011;21057;51.024;7.540;2023-08-06T10:29:54;21.50;;;20.20;;
15454;SDS011;21057;51.024;7.540;2023-08-06T10:32:20;21.65;;;20.33;;
15454;SDS011;21057;51.024;7.540;2023-08-06T10:34:55;21.15;;;19.85;;
15454;SDS011;21057;51.024;7.540;2023-08-06T10:37:23;22.77;;;21.38;;
15454;SDS011;21057;51.024;7.540;2023-08-06T10:39:50;22.65;;;21.15;;
15454;SDS011;21057;51.024;7.540;2023-08-06T10:42:22;22.90;;;21.50;;
15454;SDS011;21057;51.024;7.540;2023-08-06T10:47:40;23.75;;;22.15;;
15454;SDS011;21057;51.024;7.540;2023-08-06T10:50:07;23.83;;;22.33;;
15454;SDS011;21057;51.024;7.540;2023-08-06T10:52:36;24.27;;;22.52;;
15454;SDS011;21057;51.024;7.540;2023-08-06T10:55:04;23.75;;;22.17;;
15454;SDS011;21057;51.024;7.540;2023-08-06T10:57:33;22.75;;;21.25;;
15454;SDS011;21057;51.024;7.540;2023-08-06T10:59:59;22.55;;;21.10;;
15454;SDS011;21057;51.024;7.540;2023-08-06T11:02:26;22.50;;;21.05;;
15454;SDS011;21057;51.024;7.540;2023-08-06T11:04:54;23.48;;;22.08;;
15454;SDS011;21057;51.024;7.540;2023-08-06T11:07:21;23.40;;;21.90;;
15454;SDS011;21057;51.024;7.540;2023-08-06T11:09:50;21.75;;;20.35;;
15454;SDS011;21057;51.024;7.540;2023-08-06T11:12:18;22.13;;;20.55;;
15454;SDS011;21057;51.024;7.540;2023-08-06T11:14:50;23.73;;;21.90;;
15454;SDS011;21057;51.024;7.540;2023-08-06T11:17:17;21.67;;;20.27;;
15454;SDS011;21057;51.024;7.540;2023-08-06T11:19:44;21.20;;;19.80;;
15454;SDS011;21057;51.024;7.540;2023-08-06T11:22:11;21.67;;;20.23;;
15454;SDS011;21057;51.024;7.540;2023-08-06T11:24:38;21.50;;;20.10;;
15454;SDS011;21057;51.024;7.540;2023-08-06T11:27:10;21.65;;;20.35;;
15454;SDS011;21057;51.024;7.540;2023-08-06T11:29:38;21.40;;;20.10;;
15454;SDS011;21057;51.024;7.540;2023-08-06T11:32:06;21.65;;;20.35;;
15454;SDS011;21057;51.024;7.540;2023-08-06T11:34:34;21.65;;;20.35;;
15454;SDS011;21057;51.024;7.540;2023-08-06T11:37:02;21.52;;;20.23;;
15454;SDS011;21057;51.024;7.540;2023-08-06T11:39:30;21.80;;;20.50;;
15454;SDS011;21057;51.024;7.540;2023-08-06T11:41:57;21.10;;;19.90;;
15454;SDS011;21057;51.024;7.540;2023-08-06T11:44:25;21.80;;;20.50;;
15454;SDS011;21057;51.024;7.540;2023-08-06T11:46:52;21.87;;;20.57;;
15454;SDS011;21057;51.024;7.540;2023-08-06T11:49:22;22.20;;;20.90;;
15454;SDS011;21057;51.024;7.540;2023-08-06T11:52:07;21.27;;;20.07;;
15454;SDS011;21057;51.024;7.540;2023-08-06T11:54:39;22.30;;;21.00;;
15454;SDS011;21057;51.024;7.540;2023-08-06T11:57:05;22.00;;;20.80;;
15454;SDS011;21057;51.024;7.540;2023-08-06T11:59:33;22.60;;;21.30;;
15454;SDS011;21057;51.024;7.540;2023-08-06T12:02:00;22.90;;;21.40;;
15454;SDS011;21057;51.024;7.540;2023-08-06T12:04:29;21.97;;;20.70;;
15454;SDS011;21057;51.024;7.540;2023-08-06T12:06:56;22.77;;;21.47;;
15454;SDS011;21057;51.024;7.540;2023-08-06T12:09:32;22.30;;;21.00;;
15454;SDS011;21057;51.024;7.540;2023-08-06T12:12:01;22.40;;;21.10;;
15454;SDS011;21057;51.024;7.540;2023-08-06T12:14:28;22.33;;;21.03;;
15454;SDS011;21057;51.024;7.540;2023-08-06T12:16:55;22.10;;;20.90;;
15454;SDS011;21057;51.024;7.540;2023-08-06T12:19:22;22.60;;;21.30;;
15454;SDS011;21057;51.024;7.540;2023-08-06T12:21:50;22.13;;;20.83;;
15454;SDS011;21057;51.024;7.540;2023-08-06T12:24:17;22.30;;;21.00;;
15454;SDS011;21057;51.024;7.540;2023-08-06T12:26:43;22.50;;;21.20;;
15454;SDS011;21057;51.024;7.540;2023-08-06T12:29:10;22.53;;;21.13;;
15454;SDS011;21057;51.024;7.540;2023-08-06T12:31:37;22.10;;;20.80;;
15454;SDS011;21057;51.024;7.540;2023-08-06T12:34:04;22.03;;;20.73;;
15454;SDS011;21057;51.024;7.540;2023-08-06T12:36:30;22.30;;;21.00;;
15454;SDS011;21057;51.024;7.540;2023-08-06T12:38:59;21.57;;;20.27;;
15454;SDS011;21057;51.024;7.540;2023-08-06T12:41:25;22.77;;;21.47;;
15454;SDS011;21057;51.024;7.540;2023-08-06T12:43:52;22.20;;;20.90;;
15454;SDS011;21057;51.024;7.540;2023-08-06T12:46:19;23.03;;;21.53;;
15454;SDS011;21057;51.024;7.540;2023-08-06T12:48:46;23.07;;;21.77;;
15454;SDS011;21057;51.024;7.540;2023-08-06T12:51:13;22.07;;;20.70;;
15454;SDS011;21057;51.024;7.540;2023-08-06T12:53:40;22.37;;;20.87;;
15454;SDS011;21057;51.024;7.540;2023-08-06T12:56:08;23.30;;;21.90;;
15454;SDS011;21057;51.024;7.540;2023-08-06T12:58:35;23.40;;;21.90;;
15454;SDS011;21057;51.024;7.540;2023-08-06T13:01:02;23.37;;;21.97;;
15454;SDS011;21057;51.024;7.540;2023-08-06T13:03:29;22.87;;;21.47;;
15454;SDS011;21057;51.024;7.540;2023-08-06T13:05:55;22.47;;;21.07;;
15454;SDS011;21057;51.024;7.540;2023-08-06T13:08:23;23.50;;;22.03;;
15454;SDS011;21057;51.024;7.540;2023-08-06T13:10:50;22.80;;;21.40;;
15454;SDS011;21057;51.024;7.540;2023-08-06T13:13:18;21.77;;;20.47;;
15454;SDS011;21057;51.024;7.540;2023-08-06T13:15:45;22.77;;;21.17;;
15454;SDS011;21057;51.024;7.540;2023-08-06T13:18:12;22.77;;;21.27;;
15454;SDS011;21057;51.024;7.540;2023-08-06T13:20:39;23.33;;;21.73;;
15454;SDS011;21057;51.024;7.540;2023-08-06T13:23:06;23.30;;;21.80;;
15454;SDS011;21057;51.024;7.540;2023-08-06T13:25:32;22.47;;;21.00;;
15454;SDS011;21057;51.024;7.540;2023-08-06T13:28:02;21.37;;;19.97;;
15454;SDS011;21057;51.024;7.540;2023-08-06T13:30:30;21.97;;;20.57;;
15454;SDS011;21057;51.024;7.540;2023-08-06T13:32:57;21.90;;;20.50;;
15454;SDS011;21057;51.024;7.540;2023-08-06T13:35:24;22.30;;;20.90;;
15454;SDS011;21057;51.024;7.540;2023-08-06T13:37:51;21.03;;;19.73;;
15454;SDS011;21057;51.024;7.540;2023-08-06T13:40:19;21.50;;;20.10;;
15454;SDS011;21057;51.024;7.540;2023-08-06T13:42:46;23.17;;;21.67;;
15454;SDS011;21057;51.024;7.540;2023-08-06T13:45:13;23.20;;;21.63;;
15454;SDS011;21057;51.024;7.540;2023-08-06T13:47:41;22.70;;;21.30;;
15454;SDS011;21057;51.024;7.540;2023-08-06T13:50:08;22.50;;;21.00;;
15454;SDS011;21057;51.024;7.540;2023-08-06T13:52:35;21.03;;;19.73;;
15454;SDS011;21057;51.024;7.540;2023-08-06T13:55:02;22.17;;;20.57;;
15454;SDS011;21057;51.024;7.540;2023-08-06T13:57:29;22.57;;;21.13;;
15454;SDS011;21057;51.024;7.540;2023-08-06T13:59:57;22.10;;;20.70;;
15454;SDS011;21057;51.024;7.540;2023-08-06T14:02:24;23.60;;;21.83;;
15454;SDS011;21057;51.024;7.540;2023-08-06T14:04:53;23.13;;;21.70;;
15454;SDS011;21057;51.024;7.540;2023-08-06T14:07:19;23.83;;;22.23;;
15454;SDS011;21057;51.024;7.540;2023-08-06T14:09:47;23.47;;;21.77;;
15454;SDS011;21057;51.024;7.540;2023-08-06T14:12:14;22.17;;;20.77;;
15454;SDS011;21057;51.024;7.540;2023-08-06T14:14:41;21.50;;;20.10;;
15454;SDS011;21057;51.024;7.540;2023-08-06T14:17:08;21.47;;;20.13;;
15454;SDS011;21057;51.024;7.540;2023-08-06T14:19:35;21.10;;;19.80;;
15454;SDS011;21057;51.024;7.540;2023-08-06T14:22:03;22.60;;;21.20;;
15454;SDS011;21057;51.024;7.540;2023-08-06T14:24:30;22.90;;;21.47;;
15454;SDS011;21057;51.024;7.540;2023-08-06T14:26:56;21.83;;;20.53;;
15454;SDS011;21057;51.024;7.540;2023-08-06T14:29:23;22.13;;;20.77;;